Terminal Aerodrome Forecast
Issued by NWS Greer, SC

Home | Current Version | Previous Version | Text Only | Print | Product List | Glossary On
Versions: 1 2 3 4 5 6 7 8 9 10 11 12 13 14 15 16 17 18 19 20 21 22 23 24 25 26 27 28 29 30 31 32 33 34 35 36 37 38
456
FTUS42 KGSP 200800 AAA
TAFAVL
TAF AMD
KAVL 200800Z 2008/2106 16005KT 6SM -SHRA BR OVC015 WS020/19035KT
      TEMPO 2008/2012 3SM -SHRA BR OVC007
     FM201300 VRB02KT 4SM BR VCSH OVC008
     FM201600 34004KT P6SM BKN020
     FM201800 33006KT P6SM BKN035
     FM202000 19006KT P6SM BKN060=

USA.gov is the U.S. government's official web portal to all federal, state and local government web resources and services.